sensor_id;sensor_type;location;lat;lon;timestamp;P1;durP1;ratioP1;P2;durP2;ratioP2
18162;SDS011;9206;50.994;4.538;2022-09-09T00:01:53;5.43;;;1.33;;
18162;SDS011;9206;50.994;4.538;2022-09-09T00:04:39;4.90;;;1.27;;
18162;SDS011;9206;50.994;4.538;2022-09-09T00:10:09;2.57;;;1.53;;
18162;SDS011;9206;50.994;4.538;2022-09-09T00:12:51;1.73;;;1.30;;
18162;SDS011;9206;50.994;4.538;2022-09-09T00:15:30;5.93;;;1.63;;
18162;SDS011;9206;50.994;4.538;2022-09-09T00:18:08;4.50;;;1.40;;
18162;SDS011;9206;50.994;4.538;2022-09-09T00:20:46;2.83;;;1.20;;
18162;SDS011;9206;50.994;4.538;2022-09-09T00:23:25;3.63;;;1.60;;
18162;SDS011;9206;50.994;4.538;2022-09-09T00:26:06;6.47;;;1.40;;
18162;SDS011;9206;50.994;4.538;2022-09-09T00:28:52;1.60;;;1.43;;
18162;SDS011;9206;50.994;4.538;2022-09-09T00:36:47;2.60;;;1.40;;
18162;SDS011;9206;50.994;4.538;2022-09-09T00:39:24;2.43;;;1.10;;
18162;SDS011;9206;50.994;4.538;2022-09-09T00:42:00;3.30;;;1.30;;
18162;SDS011;9206;50.994;4.538;2022-09-09T00:44:39;4.90;;;1.80;;
18162;SDS011;9206;50.994;4.538;2022-09-09T00:47:26;5.30;;;1.67;;
18162;SDS011;9206;50.994;4.538;2022-09-09T00:50:11;2.50;;;1.60;;
18162;SDS011;9206;50.994;4.538;2022-09-09T00:55:39;3.03;;;1.47;;
18162;SDS011;9206;50.994;4.538;2022-09-09T00:58:12;2.83;;;1.70;;
18162;SDS011;9206;50.994;4.538;2022-09-09T01:00:43;4.50;;;1.37;;
18162;SDS011;9206;50.994;4.538;2022-09-09T01:06:11;5.40;;;1.80;;
18162;SDS011;9206;50.994;4.538;2022-09-09T01:09:01;4.63;;;1.33;;
18162;SDS011;9206;50.994;4.538;2022-09-09T01:11:48;1.87;;;1.67;;
18162;SDS011;9206;50.994;4.538;2022-09-09T01:14:27;1.73;;;1.43;;
18162;SDS011;9206;50.994;4.538;2022-09-09T01:17:11;4.60;;;1.40;;
18162;SDS011;9206;50.994;4.538;2022-09-09T01:19:57;3.23;;;1.40;;
18162;SDS011;9206;50.994;4.538;2022-09-09T01:22:35;2.83;;;1.50;;
18162;SDS011;9206;50.994;4.538;2022-09-09T01:25:22;1.87;;;1.67;;
18162;SDS011;9206;50.994;4.538;2022-09-09T01:28:01;5.53;;;1.40;;
18162;SDS011;9206;50.994;4.538;2022-09-09T01:30:35;2.70;;;1.70;;
18162;SDS011;9206;50.994;4.538;2022-09-09T01:33:07;4.00;;;1.50;;
18162;SDS011;9206;50.994;4.538;2022-09-09T01:35:45;3.97;;;1.50;;
18162;SDS011;9206;50.994;4.538;2022-09-09T01:38:22;5.80;;;1.30;;
18162;SDS011;9206;50.994;4.538;2022-09-09T01:40:51;4.47;;;1.40;;
18162;SDS011;9206;50.994;4.538;2022-09-09T01:45:54;4.77;;;1.70;;
18162;SDS011;9206;50.994;4.538;2022-09-09T01:48:25;4.83;;;1.47;;
18162;SDS011;9206;50.994;4.538;2022-09-09T01:50:52;4.83;;;1.63;;
18162;SDS011;9206;50.994;4.538;2022-09-09T01:53:21;4.37;;;1.73;;
18162;SDS011;9206;50.994;4.538;2022-09-09T01:55:54;5.53;;;1.50;;
18162;SDS011;9206;50.994;4.538;2022-09-09T01:58:40;3.87;;;1.27;;
18162;SDS011;9206;50.994;4.538;2022-09-09T02:01:34;3.80;;;1.93;;
18162;SDS011;9206;50.994;4.538;2022-09-09T02:04:18;4.00;;;1.47;;
18162;SDS011;9206;50.994;4.538;2022-09-09T02:07:00;1.43;;;1.33;;
18162;SDS011;9206;50.994;4.538;2022-09-09T02:09:33;5.90;;;1.83;;
18162;SDS011;9206;50.994;4.538;2022-09-09T02:12:05;5.47;;;1.60;;
18162;SDS011;9206;50.994;4.538;2022-09-09T02:14:46;5.13;;;2.00;;
18162;SDS011;9206;50.994;4.538;2022-09-09T02:17:21;4.97;;;1.47;;
18162;SDS011;9206;50.994;4.538;2022-09-09T02:19:56;5.07;;;1.67;;
18162;SDS011;9206;50.994;4.538;2022-09-09T02:22:27;8.40;;;2.13;;
18162;SDS011;9206;50.994;4.538;2022-09-09T02:24:57;6.67;;;2.33;;
18162;SDS011;9206;50.994;4.538;2022-09-09T02:27:27;4.40;;;1.70;;
18162;SDS011;9206;50.994;4.538;2022-09-09T02:30:04;4.97;;;1.70;;
18162;SDS011;9206;50.994;4.538;2022-09-09T02:32:38;3.10;;;1.60;;
18162;SDS011;9206;50.994;4.538;2022-09-09T02:35:09;5.40;;;2.10;;
18162;SDS011;9206;50.994;4.538;2022-09-09T02:37:45;3.00;;;1.73;;
18162;SDS011;9206;50.994;4.538;2022-09-09T02:40:14;8.00;;;1.70;;
18162;SDS011;9206;50.994;4.538;2022-09-09T02:42:44;3.87;;;1.93;;
18162;SDS011;9206;50.994;4.538;2022-09-09T02:45:18;2.53;;;1.83;;
18162;SDS011;9206;50.994;4.538;2022-09-09T02:47:55;3.53;;;1.90;;
18162;SDS011;9206;50.994;4.538;2022-09-09T02:50:31;3.47;;;1.77;;
18162;SDS011;9206;50.994;4.538;2022-09-09T02:55:44;4.87;;;1.90;;
18162;SDS011;9206;50.994;4.538;2022-09-09T02:58:20;6.23;;;2.03;;
18162;SDS011;9206;50.994;4.538;2022-09-09T03:00:53;6.10;;;2.30;;
18162;SDS011;9206;50.994;4.538;2022-09-09T03:03:23;7.60;;;2.30;;
18162;SDS011;9206;50.994;4.538;2022-09-09T03:05:50;4.10;;;2.37;;
18162;SDS011;9206;50.994;4.538;2022-09-09T03:08:23;5.50;;;1.87;;
18162;SDS011;9206;50.994;4.538;2022-09-09T03:10:59;7.23;;;2.00;;
18162;SDS011;9206;50.994;4.538;2022-09-09T03:16:05;9.27;;;2.80;;
18162;SDS011;9206;50.994;4.538;2022-09-09T03:18:35;9.00;;;2.17;;
18162;SDS011;9206;50.994;4.538;2022-09-09T03:21:08;4.57;;;2.10;;
18162;SDS011;9206;50.994;4.538;2022-09-09T03:23:36;4.17;;;2.00;;
18162;SDS011;9206;50.994;4.538;2022-09-09T03:26:06;4.77;;;2.37;;
18162;SDS011;9206;50.994;4.538;2022-09-09T03:28:34;8.73;;;2.57;;
18162;SDS011;9206;50.994;4.538;2022-09-09T03:31:05;6.43;;;2.27;;
18162;SDS011;9206;50.994;4.538;2022-09-09T03:33:37;7.13;;;2.10;;
18162;SDS011;9206;50.994;4.538;2022-09-09T03:36:11;6.53;;;1.90;;
18162;SDS011;9206;50.994;4.538;2022-09-09T03:41:12;9.50;;;2.47;;
18162;SDS011;9206;50.994;4.538;2022-09-09T03:43:45;5.57;;;2.47;;
18162;SDS011;9206;50.994;4.538;2022-09-09T03:46:20;12.13;;;2.77;;
18162;SDS011;9206;50.994;4.538;2022-09-09T03:51:32;4.83;;;2.17;;
18162;SDS011;9206;50.994;4.538;2022-09-09T03:54:02;4.90;;;2.03;;
18162;SDS011;9206;50.994;4.538;2022-09-09T03:56:36;10.00;;;2.13;;
18162;SDS011;9206;50.994;4.538;2022-09-09T03:59:10;3.40;;;2.27;;
18162;SDS011;9206;50.994;4.538;2022-09-09T04:01:38;7.97;;;2.50;;
18162;SDS011;9206;50.994;4.538;2022-09-09T04:04:11;4.73;;;1.93;;
18162;SDS011;9206;50.994;4.538;2022-09-09T04:06:41;7.70;;;2.27;;
18162;SDS011;9206;50.994;4.538;2022-09-09T04:09:12;15.83;;;2.97;;
18162;SDS011;9206;50.994;4.538;2022-09-09T04:11:52;6.30;;;2.50;;
18162;SDS011;9206;50.994;4.538;2022-09-09T04:14:23;8.90;;;3.20;;
18162;SDS011;9206;50.994;4.538;2022-09-09T04:16:58;9.57;;;1.90;;
18162;SDS011;9206;50.994;4.538;2022-09-09T04:19:25;5.10;;;2.17;;
18162;SDS011;9206;50.994;4.538;2022-09-09T04:22:00;5.10;;;2.33;;
18162;SDS011;9206;50.994;4.538;2022-09-09T04:24:27;9.93;;;2.40;;
18162;SDS011;9206;50.994;4.538;2022-09-09T04:26:54;6.03;;;2.37;;
18162;SDS011;9206;50.994;4.538;2022-09-09T04:29:22;7.70;;;2.50;;
18162;SDS011;9206;50.994;4.538;2022-09-09T04:31:51;8.33;;;2.23;;
18162;SDS011;9206;50.994;4.538;2022-09-09T04:34:21;11.23;;;2.60;;
18162;SDS011;9206;50.994;4.538;2022-09-09T04:36:49;4.23;;;2.10;;
18162;SDS011;9206;50.994;4.538;2022-09-09T04:39:20;9.83;;;2.43;;
18162;SDS011;9206;50.994;4.538;2022-09-09T04:41:48;10.63;;;2.60;;
18162;SDS011;9206;50.994;4.538;2022-09-09T04:44:17;12.97;;;2.53;;
18162;SDS011;9206;50.994;4.538;2022-09-09T04:46:44;8.47;;;2.30;;
18162;SDS011;9206;50.994;4.538;2022-09-09T04:49:11;8.13;;;2.70;;
18162;SDS011;9206;50.994;4.538;2022-09-09T04:51:40;9.07;;;2.57;;
18162;SDS011;9206;50.994;4.538;2022-09-09T04:54:11;12.23;;;2.83;;
18162;SDS011;9206;50.994;4.538;2022-09-09T04:56:38;6.33;;;2.20;;
18162;SDS011;9206;50.994;4.538;2022-09-09T04:59:06;6.23;;;2.17;;
18162;SDS011;9206;50.994;4.538;2022-09-09T05:01:35;11.17;;;2.73;;
18162;SDS011;9206;50.994;4.538;2022-09-09T05:04:03;12.13;;;2.37;;
18162;SDS011;9206;50.994;4.538;2022-09-09T05:06:30;11.43;;;2.60;;
18162;SDS011;9206;50.994;4.538;2022-09-09T05:09:01;7.17;;;2.93;;
18162;SDS011;9206;50.994;4.538;2022-09-09T05:11:34;11.77;;;2.90;;
18162;SDS011;9206;50.994;4.538;2022-09-09T05:14:03;8.67;;;2.70;;
18162;SDS011;9206;50.994;4.538;2022-09-09T05:16:39;10.60;;;2.80;;
18162;SDS011;9206;50.994;4.538;2022-09-09T05:19:17;8.70;;;2.87;;
18162;SDS011;9206;50.994;4.538;2022-09-09T05:21:50;11.23;;;2.50;;
18162;SDS011;9206;50.994;4.538;2022-09-09T05:24:21;5.30;;;2.10;;
18162;SDS011;9206;50.994;4.538;2022-09-09T05:26:49;3.10;;;2.37;;
18162;SDS011;9206;50.994;4.538;2022-09-09T05:29:23;9.57;;;2.60;;
18162;SDS011;9206;50.994;4.538;2022-09-09T05:31:56;9.13;;;2.83;;
18162;SDS011;9206;50.994;4.538;2022-09-09T05:34:26;5.10;;;2.67;;
18162;SDS011;9206;50.994;4.538;2022-09-09T05:36:53;6.83;;;2.40;;
18162;SDS011;9206;50.994;4.538;2022-09-09T05:39:25;11.47;;;2.70;;
18162;SDS011;9206;50.994;4.538;2022-09-09T05:41:53;13.40;;;2.50;;
18162;SDS011;9206;50.994;4.538;2022-09-09T05:44:28;7.90;;;2.70;;
18162;SDS011;9206;50.994;4.538;2022-09-09T05:46:57;11.43;;;2.30;;
18162;SDS011;9206;50.994;4.538;2022-09-09T05:49:24;6.83;;;2.00;;
18162;SDS011;9206;50.994;4.538;2022-09-09T05:56:59;8.10;;;2.20;;
18162;SDS011;9206;50.994;4.538;2022-09-09T05:59:29;7.03;;;2.00;;
18162;SDS011;9206;50.994;4.538;2022-09-09T06:02:03;11.48;;;2.70;;
18162;SDS011;9206;50.994;4.538;2022-09-09T06:04:31;6.75;;;2.10;;
18162;SDS011;9206;50.994;4.538;2022-09-09T06:07:00;12.35;;;2.65;;
18162;SDS011;9206;50.994;4.538;2022-09-09T06:09:31;7.60;;;2.40;;
18162;SDS011;9206;50.994;4.538;2022-09-09T06:11:59;6.07;;;2.00;;
18162;SDS011;9206;50.994;4.538;2022-09-09T06:14:32;11.83;;;2.53;;
18162;SDS011;9206;50.994;4.538;2022-09-09T06:17:05;5.47;;;2.50;;
18162;SDS011;9206;50.994;4.538;2022-09-09T06:22:08;7.75;;;2.10;;
18162;SDS011;9206;50.994;4.538;2022-09-09T06:24:44;9.37;;;2.67;;
18162;SDS011;9206;50.994;4.538;2022-09-09T06:27:11;8.32;;;2.45;;
18162;SDS011;9206;50.994;4.538;2022-09-09T06:29:45;4.13;;;2.22;;
18162;SDS011;9206;50.994;4.538;2022-09-09T06:32:16;7.20;;;2.57;;
18162;SDS011;9206;50.994;4.538;2022-09-09T06:34:56;10.13;;;2.50;;
18162;SDS011;9206;50.994;4.538;2022-09-09T06:37:32;6.40;;;2.33;;
18162;SDS011;9206;50.994;4.538;2022-09-09T06:40:02;9.75;;;1.88;;
18162;SDS011;9206;50.994;4.538;2022-09-09T06:42:37;8.55;;;2.03;;
18162;SDS011;9206;50.994;4.538;2022-09-09T06:45:07;4.88;;;2.05;;
18162;SDS011;9206;50.994;4.538;2022-09-09T06:47:37;5.50;;;2.00;;
18162;SDS011;9206;50.994;4.538;2022-09-09T06:50:04;1.98;;;1.70;;
18162;SDS011;9206;50.994;4.538;2022-09-09T06:52:37;11.13;;;2.28;;
18162;SDS011;9206;50.994;4.538;2022-09-09T06:55:12;6.57;;;1.80;;
18162;SDS011;9206;50.994;4.538;2022-09-09T07:00:11;5.65;;;2.13;;
18162;SDS011;9206;50.994;4.538;2022-09-09T07:02:43;5.13;;;2.20;;
18162;SDS011;9206;50.994;4.538;2022-09-09T07:05:16;4.38;;;2.03;;
18162;SDS011;9206;50.994;4.538;2022-09-09T07:07:47;8.77;;;2.28;;
18162;SDS011;9206;50.994;4.538;2022-09-09T07:10:22;5.10;;;1.98;;
18162;SDS011;9206;50.994;4.538;2022-09-09T07:12:53;6.77;;;2.17;;
18162;SDS011;9206;50.994;4.538;2022-09-09T07:15:22;8.30;;;2.27;;
18162;SDS011;9206;50.994;4.538;2022-09-09T07:17:50;8.85;;;2.17;;
18162;SDS011;9206;50.994;4.538;2022-09-09T07:20:18;5.27;;;2.07;;
18162;SDS011;9206;50.994;4.538;2022-09-09T07:26:12;5.57;;;2.53;;
18162;SDS011;9206;50.994;4.538;2022-09-09T07:29:37;13.73;;;2.72;;
18162;SDS011;9206;50.994;4.538;2022-09-09T07:32:05;10.52;;;2.58;;
18162;SDS011;9206;50.994;4.538;2022-09-09T07:35:15;6.18;;;1.98;;
18162;SDS011;9206;50.994;4.538;2022-09-09T07:41:16;6.77;;;2.17;;
18162;SDS011;9206;50.994;4.538;2022-09-09T07:43:47;5.97;;;1.90;;
18162;SDS011;9206;50.994;4.538;2022-09-09T07:46:55;8.83;;;2.40;;
18162;SDS011;9206;50.994;4.538;2022-09-09T07:49:59;8.90;;;2.43;;
18162;SDS011;9206;50.994;4.538;2022-09-09T07:52:43;8.40;;;2.30;;
18162;SDS011;9206;50.994;4.538;2022-09-09T07:55:27;3.30;;;1.87;;
18162;SDS011;9206;50.994;4.538;2022-09-09T07:58:26;6.07;;;2.25;;
18162;SDS011;9206;50.994;4.538;2022-09-09T08:00:59;5.18;;;2.22;;
18162;SDS011;9206;50.994;4.538;2022-09-09T08:03:33;2.63;;;1.60;;
18162;SDS011;9206;50.994;4.538;2022-09-09T08:06:02;6.20;;;1.75;;
18162;SDS011;9206;50.994;4.538;2022-09-09T08:08:53;7.82;;;2.10;;
18162;SDS011;9206;50.994;4.538;2022-09-09T08:11:27;3.97;;;1.92;;
18162;SDS011;9206;50.994;4.538;2022-09-09T08:14:06;4.53;;;2.00;;
18162;SDS011;9206;50.994;4.538;2022-09-09T08:16:36;9.77;;;2.45;;
18162;SDS011;9206;50.994;4.538;2022-09-09T08:19:09;4.35;;;2.10;;
18162;SDS011;9206;50.994;4.538;2022-09-09T08:21:42;5.65;;;1.90;;
18162;SDS011;9206;50.994;4.538;2022-09-09T08:24:23;4.22;;;1.77;;
18162;SDS011;9206;50.994;4.538;2022-09-09T08:26:58;3.92;;;1.63;;
18162;SDS011;9206;50.994;4.538;2022-09-09T08:29:30;6.20;;;1.98;;
18162;SDS011;9206;50.994;4.538;2022-09-09T08:31:59;3.63;;;1.83;;
18162;SDS011;9206;50.994;4.538;2022-09-09T08:34:26;4.20;;;1.58;;
18162;SDS011;9206;50.994;4.538;2022-09-09T08:37:04;5.82;;;1.75;;
18162;SDS011;9206;50.994;4.538;2022-09-09T08:48:08;6.30;;;1.90;;
18162;SDS011;9206;50.994;4.538;2022-09-09T08:50:47;5.93;;;2.00;;
18162;SDS011;9206;50.994;4.538;2022-09-09T08:53:28;3.50;;;1.65;;
18162;SDS011;9206;50.994;4.538;2022-09-09T08:56:09;6.85;;;2.08;;
18162;SDS011;9206;50.994;4.538;2022-09-09T08:58:43;6.53;;;1.95;;
18162;SDS011;9206;50.994;4.538;2022-09-09T09:04:19;6.47;;;2.30;;
18162;SDS011;9206;50.994;4.538;2022-09-09T09:07:09;9.15;;;2.13;;
18162;SDS011;9206;50.994;4.538;2022-09-09T09:09:52;10.90;;;2.00;;
18162;SDS011;9206;50.994;4.538;2022-09-09T09:12:29;8.50;;;2.10;;
18162;SDS011;9206;50.994;4.538;2022-09-09T09:15:09;6.27;;;1.87;;
18162;SDS011;9206;50.994;4.538;2022-09-09T09:17:43;3.53;;;1.98;;
18162;SDS011;9206;50.994;4.538;2022-09-09T09:20:12;8.23;;;2.20;;
18162;SDS011;9206;50.994;4.538;2022-09-09T09:22:47;5.20;;;2.13;;
18162;SDS011;9206;50.994;4.538;2022-09-09T09:25:17;7.07;;;2.07;;
18162;SDS011;9206;50.994;4.538;2022-09-09T09:28:00;5.47;;;2.00;;
18162;SDS011;9206;50.994;4.538;2022-09-09T09:30:31;7.97;;;2.17;;
18162;SDS011;9206;50.994;4.538;2022-09-09T09:33:08;7.90;;;2.23;;
18162;SDS011;9206;50.994;4.538;2022-09-09T09:35:44;7.10;;;2.10;;
18162;SDS011;9206;50.994;4.538;2022-09-09T09:38:16;9.23;;;2.30;;
18162;SDS011;9206;50.994;4.538;2022-09-09T09:40:49;8.20;;;2.30;;
18162;SDS011;9206;50.994;4.538;2022-09-09T09:43:21;6.30;;;2.00;;
18162;SDS011;9206;50.994;4.538;2022-09-09T09:48:27;5.43;;;1.93;;
18162;SDS011;9206;50.994;4.538;2022-09-09T09:50:58;3.17;;;1.80;;
18162;SDS011;9206;50.994;4.538;2022-09-09T09:53:34;7.13;;;2.10;;
18162;SDS011;9206;50.994;4.538;2022-09-09T09:56:10;8.00;;;2.10;;
18162;SDS011;9206;50.994;4.538;2022-09-09T10:01:20;5.43;;;2.03;;
18162;SDS011;9206;50.994;4.538;2022-09-09T10:03:58;3.23;;;1.60;;
18162;SDS011;9206;50.994;4.538;2022-09-09T10:06:30;8.03;;;2.20;;
18162;SDS011;9206;50.994;4.538;2022-09-09T10:09:02;4.60;;;2.30;;
18162;SDS011;9206;50.994;4.538;2022-09-09T10:11:40;3.47;;;1.97;;
18162;SDS011;9206;50.994;4.538;2022-09-09T10:14:20;4.65;;;2.55;;
18162;SDS011;9206;50.994;4.538;2022-09-09T10:16:55;7.15;;;1.95;;
18162;SDS011;9206;50.994;4.538;2022-09-09T10:19:45;5.53;;;2.30;;
18162;SDS011;9206;50.994;4.538;2022-09-09T10:22:27;4.27;;;2.07;;
18162;SDS011;9206;50.994;4.538;2022-09-09T10:28:06;5.77;;;2.27;;
18162;SDS011;9206;50.994;4.538;2022-09-09T10:31:01;5.13;;;2.00;;
18162;SDS011;9206;50.994;4.538;2022-09-09T10:33:41;5.10;;;2.00;;
18162;SDS011;9206;50.994;4.538;2022-09-09T10:39:45;3.75;;;1.50;;
18162;SDS011;9206;50.994;4.538;2022-09-09T10:46:28;5.43;;;1.90;;
18162;SDS011;9206;50.994;4.538;2022-09-09T10:49:45;4.60;;;1.98;;
18162;SDS011;9206;50.994;4.538;2022-09-09T10:52:59;4.25;;;2.45;;
18162;SDS011;9206;50.994;4.538;2022-09-09T10:55:50;4.18;;;2.03;;
18162;SDS011;9206;50.994;4.538;2022-09-09T10:58:24;2.42;;;1.60;;
18162;SDS011;9206;50.994;4.538;2022-09-09T11:05:09;5.75;;;1.90;;
18162;SDS011;9206;50.994;4.538;2022-09-09T11:08:06;6.80;;;2.30;;
18162;SDS011;9206;50.994;4.538;2022-09-09T11:11:06;2.90;;;1.80;;
18162;SDS011;9206;50.994;4.538;2022-09-09T11:13:44;3.85;;;1.80;;
18162;SDS011;9206;50.994;4.538;2022-09-09T11:19:33;5.53;;;1.75;;
18162;SDS011;9206;50.994;4.538;2022-09-09T11:22:16;4.95;;;1.90;;
18162;SDS011;9206;50.994;4.538;2022-09-09T11:31:08;3.28;;;1.52;;
18162;SDS011;9206;50.994;4.538;2022-09-09T11:34:25;3.03;;;2.00;;
18162;SDS011;9206;50.994;4.538;2022-09-09T11:40:37;7.18;;;1.60;;
18162;SDS011;9206;50.994;4.538;2022-09-09T11:43:41;6.15;;;1.30;;
18162;SDS011;9206;50.994;4.538;2022-09-09T11:46:22;1.67;;;1.45;;
18162;SDS011;9206;50.994;4.538;2022-09-09T11:51:37;3.58;;;1.48;;
18162;SDS011;9206;50.994;4.538;2022-09-09T11:54:25;1.98;;;1.48;;
18162;SDS011;9206;50.994;4.538;2022-09-09T11:56:55;3.65;;;1.65;;
18162;SDS011;9206;50.994;4.538;2022-09-09T11:59:37;3.10;;;1.45;;
18162;SDS011;9206;50.994;4.538;2022-09-09T12:02:14;3.92;;;1.48;;
18162;SDS011;9206;50.994;4.538;2022-09-09T12:07:49;2.42;;;1.50;;
18162;SDS011;9206;50.994;4.538;2022-09-09T12:10:25;5.70;;;1.52;;
18162;SDS011;9206;50.994;4.538;2022-09-09T12:13:07;1.67;;;1.15;;
18162;SDS011;9206;50.994;4.538;2022-09-09T12:15:46;4.40;;;1.77;;
18162;SDS011;9206;50.994;4.538;2022-09-09T12:18:15;6.25;;;1.80;;
18162;SDS011;9206;50.994;4.538;2022-09-09T12:20:57;3.90;;;1.70;;
18162;SDS011;9206;50.994;4.538;2022-09-09T12:23:35;3.25;;;1.52;;
18162;SDS011;9206;50.994;4.538;2022-09-09T12:29:02;5.75;;;1.75;;
18162;SDS011;9206;50.994;4.538;2022-09-09T12:32:15;3.42;;;1.27;;
18162;SDS011;9206;50.994;4.538;2022-09-09T12:35:09;2.40;;;1.40;;
18162;SDS011;9206;50.994;4.538;2022-09-09T12:39:32;2.42;;;1.35;;
18162;SDS011;9206;50.994;4.538;2022-09-09T12:44:09;5.70;;;1.73;;
18162;SDS011;9206;50.994;4.538;2022-09-09T12:48:07;4.70;;;1.73;;
18162;SDS011;9206;50.994;4.538;2022-09-09T12:53:47;3.63;;;1.38;;
18162;SDS011;9206;50.994;4.538;2022-09-09T12:56:24;3.78;;;1.45;;
18162;SDS011;9206;50.994;4.538;2022-09-09T12:59:02;2.85;;;1.85;;
18162;SDS011;9206;50.994;4.538;2022-09-09T13:01:32;6.80;;;1.58;;
18162;SDS011;9206;50.994;4.538;2022-09-09T13:04:02;7.28;;;1.95;;
18162;SDS011;9206;50.994;4.538;2022-09-09T13:06:48;4.15;;;1.65;;
18162;SDS011;9206;50.994;4.538;2022-09-09T13:09:17;5.93;;;1.35;;
18162;SDS011;9206;50.994;4.538;2022-09-09T13:12:04;1.95;;;1.60;;
18162;SDS011;9206;50.994;4.538;2022-09-09T13:14:39;1.98;;;1.42;;
18162;SDS011;9206;50.994;4.538;2022-09-09T13:17:15;9.02;;;1.70;;
18162;SDS011;9206;50.994;4.538;2022-09-09T13:19:46;2.40;;;1.38;;
18162;SDS011;9206;50.994;4.538;2022-09-09T13:22:20;7.82;;;1.30;;
18162;SDS011;9206;50.994;4.538;2022-09-09T13:27:28;5.93;;;1.50;;
18162;SDS011;9206;50.994;4.538;2022-09-09T13:33:18;5.18;;;1.30;;
18162;SDS011;9206;50.994;4.538;2022-09-09T13:35:55;5.32;;;1.42;;
18162;SDS011;9206;50.994;4.538;2022-09-09T13:38:24;1.73;;;1.30;;
18162;SDS011;9206;50.994;4.538;2022-09-09T13:40:55;4.60;;;1.33;;
18162;SDS011;9206;50.994;4.538;2022-09-09T13:43:26;5.53;;;1.30;;
18162;SDS011;9206;50.994;4.538;2022-09-09T13:45:57;3.13;;;1.13;;
18162;SDS011;9206;50.994;4.538;2022-09-09T13:48:27;3.30;;;1.42;;
18162;SDS011;9206;50.994;4.538;2022-09-09T13:50:59;2.17;;;1.42;;
18162;SDS011;9206;50.994;4.538;2022-09-09T13:53:30;2.90;;;1.77;;
18162;SDS011;9206;50.994;4.538;2022-09-09T13:55:59;3.45;;;1.40;;
18162;SDS011;9206;50.994;4.538;2022-09-09T13:58:28;5.13;;;1.17;;
18162;SDS011;9206;50.994;4.538;2022-09-09T14:01:01;5.95;;;1.50;;
18162;SDS011;9206;50.994;4.538;2022-09-09T14:03:29;2.53;;;1.20;;
18162;SDS011;9206;50.994;4.538;2022-09-09T14:05:56;1.25;;;1.08;;
18162;SDS011;9206;50.994;4.538;2022-09-09T14:08:27;2.67;;;1.50;;
18162;SDS011;9206;50.994;4.538;2022-09-09T14:11:04;3.70;;;1.08;;
18162;SDS011;9206;50.994;4.538;2022-09-09T14:13:37;1.30;;;1.10;;
18162;SDS011;9206;50.994;4.538;2022-09-09T14:16:06;4.55;;;1.15;;
18162;SDS011;9206;50.994;4.538;2022-09-09T14:18:39;2.20;;;1.20;;
18162;SDS011;9206;50.994;4.538;2022-09-09T14:21:09;4.53;;;1.20;;
18162;SDS011;9206;50.994;4.538;2022-09-09T14:23:37;2.63;;;1.25;;
18162;SDS011;9206;50.994;4.538;2022-09-09T14:26:05;2.42;;;1.23;;
18162;SDS011;9206;50.994;4.538;2022-09-09T14:28:39;2.65;;;1.30;;
18162;SDS011;9206;50.994;4.538;2022-09-09T14:31:13;4.65;;;1.20;;
18162;SDS011;9206;50.994;4.538;2022-09-09T14:33:44;3.72;;;1.05;;
18162;SDS011;9206;50.994;4.538;2022-09-09T14:36:13;1.88;;;1.00;;
18162;SDS011;9206;50.994;4.538;2022-09-09T14:38:58;3.25;;;1.30;;
18162;SDS011;9206;50.994;4.538;2022-09-09T14:41:25;1.48;;;1.05;;
18162;SDS011;9206;50.994;4.538;2022-09-09T14:43:56;1.80;;;1.20;;
18162;SDS011;9206;50.994;4.538;2022-09-09T14:46:26;1.52;;;1.08;;
18162;SDS011;9206;50.994;4.538;2022-09-09T14:48:57;2.33;;;1.17;;
18162;SDS011;9206;50.994;4.538;2022-09-09T14:51:37;3.13;;;1.33;;
18162;SDS011;9206;50.994;4.538;2022-09-09T14:54:04;2.17;;;1.33;;
18162;SDS011;9206;50.994;4.538;2022-09-09T14:56:31;2.13;;;1.20;;
18162;SDS011;9206;50.994;4.538;2022-09-09T14:59:04;5.75;;;1.50;;
18162;SDS011;9206;50.994;4.538;2022-09-09T15:01:37;2.20;;;1.30;;
18162;SDS011;9206;50.994;4.538;2022-09-09T15:04:05;3.65;;;1.67;;
18162;SDS011;9206;50.994;4.538;2022-09-09T15:11:52;2.22;;;1.50;;
18162;SDS011;9206;50.994;4.538;2022-09-09T15:14:21;3.03;;;1.63;;
18162;SDS011;9206;50.994;4.538;2022-09-09T15:16:48;1.60;;;1.40;;
18162;SDS011;9206;50.994;4.538;2022-09-09T15:19:15;3.55;;;1.48;;
18162;SDS011;9206;50.994;4.538;2022-09-09T15:21:48;1.73;;;1.27;;
18162;SDS011;9206;50.994;4.538;2022-09-09T15:24:21;3.30;;;1.55;;
18162;SDS011;9206;50.994;4.538;2022-09-09T15:27:01;3.40;;;1.52;;
18162;SDS011;9206;50.994;4.538;2022-09-09T15:35:56;1.23;;;1.13;;
18162;SDS011;9206;50.994;4.538;2022-09-09T15:38:40;1.95;;;1.13;;
18162;SDS011;9206;50.994;4.538;2022-09-09T15:41:09;2.63;;;1.27;;
18162;SDS011;9206;50.994;4.538;2022-09-09T15:43:42;3.42;;;1.00;;
18162;SDS011;9206;50.994;4.538;2022-09-09T15:46:26;4.93;;;1.38;;
18162;SDS011;9206;50.994;4.538;2022-09-09T15:49:02;2.00;;;1.30;;
18162;SDS011;9206;50.994;4.538;2022-09-09T15:51:42;4.68;;;1.48;;
18162;SDS011;9206;50.994;4.538;2022-09-09T15:54:13;3.22;;;1.55;;
18162;SDS011;9206;50.994;4.538;2022-09-09T15:56:47;4.03;;;1.42;;
18162;SDS011;9206;50.994;4.538;2022-09-09T15:59:19;2.55;;;1.25;;
18162;SDS011;9206;50.994;4.538;2022-09-09T16:01:46;4.20;;;1.42;;
18162;SDS011;9206;50.994;4.538;2022-09-09T16:04:16;1.42;;;1.15;;
18162;SDS011;9206;50.994;4.538;2022-09-09T16:06:49;1.50;;;1.20;;
18162;SDS011;9206;50.994;4.538;2022-09-09T16:09:23;1.27;;;1.20;;
18162;SDS011;9206;50.994;4.538;2022-09-09T16:12:05;2.03;;;1.30;;
18162;SDS011;9206;50.994;4.538;2022-09-09T16:14:34;1.58;;;1.30;;
18162;SDS011;9206;50.994;4.538;2022-09-09T16:17:47;3.22;;;1.50;;
18162;SDS011;9206;50.994;4.538;2022-09-09T16:20:17;4.60;;;1.30;;
18162;SDS011;9206;50.994;4.538;2022-09-09T16:23:11;3.95;;;1.60;;
18162;SDS011;9206;50.994;4.538;2022-09-09T16:26:34;1.80;;;1.65;;
18162;SDS011;9206;50.994;4.538;2022-09-09T16:29:05;3.88;;;1.77;;
18162;SDS011;9206;50.994;4.538;2022-09-09T16:31:34;1.98;;;1.50;;
18162;SDS011;9206;50.994;4.538;2022-09-09T16:34:19;3.72;;;1.73;;
18162;SDS011;9206;50.994;4.538;2022-09-09T16:37:40;4.70;;;1.67;;
18162;SDS011;9206;50.994;4.538;2022-09-09T16:40:23;2.90;;;1.73;;
18162;SDS011;9206;50.994;4.538;2022-09-09T16:42:53;2.75;;;1.58;;
18162;SDS011;9206;50.994;4.538;2022-09-09T16:45:23;6.25;;;1.80;;
18162;SDS011;9206;50.994;4.538;2022-09-09T16:47:50;1.98;;;1.55;;
18162;SDS011;9206;50.994;4.538;2022-09-09T16:50:17;2.22;;;1.30;;
18162;SDS011;9206;50.994;4.538;2022-09-09T16:52:51;1.95;;;1.30;;
18162;SDS011;9206;50.994;4.538;2022-09-09T16:55:20;1.95;;;1.60;;
18162;SDS011;9206;50.994;4.538;2022-09-09T16:57:49;4.85;;;1.70;;
18162;SDS011;9206;50.994;4.538;2022-09-09T17:00:16;3.00;;;1.45;;
18162;SDS011;9206;50.994;4.538;2022-09-09T17:02:46;2.30;;;1.48;;
18162;SDS011;9206;50.994;4.538;2022-09-09T17:05:18;3.50;;;1.30;;
18162;SDS011;9206;50.994;4.538;2022-09-09T17:07:46;3.17;;;1.60;;
18162;SDS011;9206;50.994;4.538;2022-09-09T17:10:16;1.50;;;1.40;;
18162;SDS011;9206;50.994;4.538;2022-09-09T17:12:43;4.03;;;1.52;;
18162;SDS011;9206;50.994;4.538;2022-09-09T17:15:17;2.50;;;1.30;;
18162;SDS011;9206;50.994;4.538;2022-09-09T17:17:48;4.32;;;1.30;;
18162;SDS011;9206;50.994;4.538;2022-09-09T17:20:19;4.85;;;1.40;;
18162;SDS011;9206;50.994;4.538;2022-09-09T17:22:55;2.10;;;1.40;;
18162;SDS011;9206;50.994;4.538;2022-09-09T17:25:25;1.55;;;1.33;;
18162;SDS011;9206;50.994;4.538;2022-09-09T17:30:36;1.95;;;1.50;;
18162;SDS011;9206;50.994;4.538;2022-09-09T17:33:06;2.65;;;1.30;;
18162;SDS011;9206;50.994;4.538;2022-09-09T17:35:36;3.60;;;1.40;;
18162;SDS011;9206;50.994;4.538;2022-09-09T17:38:07;1.67;;;1.23;;
18162;SDS011;9206;50.994;4.538;2022-09-09T17:40:35;1.17;;;1.08;;
18162;SDS011;9206;50.994;4.538;2022-09-09T17:43:02;2.40;;;1.40;;
18162;SDS011;9206;50.994;4.538;2022-09-09T17:45:33;1.85;;;1.20;;
18162;SDS011;9206;50.994;4.538;2022-09-09T17:48:08;1.83;;;1.27;;
18162;SDS011;9206;50.994;4.538;2022-09-09T17:50:35;2.00;;;1.40;;
18162;SDS011;9206;50.994;4.538;2022-09-09T17:53:12;2.72;;;1.15;;
18162;SDS011;9206;50.994;4.538;2022-09-09T17:55:42;1.45;;;1.20;;